createdAt,value
2022-08-05T00:02:14.974Z,27.10
2022-08-05T00:05:05.620Z,27.10
2022-08-05T00:08:01.094Z,27.10
2022-08-05T00:10:48.930Z,27.10
2022-08-05T00:13:40.110Z,27.10
2022-08-05T00:16:35.679Z,27.00
2022-08-05T00:19:40.622Z,27.00
2022-08-05T00:22:32.408Z,27.00
2022-08-05T00:25:19.931Z,26.90
2022-08-05T00:28:08.241Z,27.00
2022-08-05T00:31:04.193Z,26.80
2022-08-05T00:34:56.409Z,26.70
2022-08-05T00:37:11.022Z,26.60
2022-08-05T00:40:01.013Z,26.50
2022-08-05T00:42:49.972Z,26.40
2022-08-05T00:45:39.114Z,26.40
2022-08-05T00:48:31.741Z,26.50
2022-08-05T00:51:50.224Z,26.50
2022-08-05T00:54:30.219Z,26.50
2022-08-05T00:57:21.162Z,26.50
2022-08-05T01:00:11.212Z,26.50
2022-08-05T01:03:01.059Z,26.50
2022-08-05T01:05:48.502Z,26.60
2022-08-05T01:08:43.704Z,26.60
2022-08-05T01:11:37.791Z,26.60
2022-08-05T01:14:37.577Z,26.70
2022-08-05T01:17:43.856Z,26.40
2022-08-05T01:21:06.082Z,26.30
2022-08-05T01:24:17.761Z,26.20
2022-08-05T01:27:19.342Z,26.30
2022-08-05T01:30:17.865Z,26.30
2022-08-05T01:33:11.641Z,26.30
2022-08-05T01:36:18.669Z,26.20
2022-08-05T01:39:09.673Z,26.20
2022-08-05T01:42:01.037Z,26.10
2022-08-05T01:44:54.344Z,26.10
2022-08-05T01:47:46.566Z,26.10
2022-08-05T01:50:41.857Z,26.00
2022-08-05T01:53:57.468Z,26.00
2022-08-05T01:58:11.440Z,26.10
2022-08-05T02:00:02.979Z,26.10
2022-08-05T02:03:03.568Z,26.00
2022-08-05T02:05:57.818Z,25.90
2022-08-05T02:08:57.897Z,25.80
2022-08-05T02:12:05.001Z,25.70
2022-08-05T02:15:33.174Z,25.60
2022-08-05T02:18:47.195Z,25.60
2022-08-05T02:21:46.773Z,25.40
2022-08-05T02:24:44.751Z,25.30
2022-08-05T02:27:59.657Z,25.30
2022-08-05T02:30:56.805Z,25.30
2022-08-05T02:34:04.405Z,25.30
2022-08-05T02:36:59.771Z,25.40
2022-08-05T02:39:53.699Z,25.40
2022-08-05T02:42:43.660Z,25.40
2022-08-05T02:45:52.006Z,25.40
2022-08-05T02:48:43.539Z,25.40
2022-08-05T02:52:03.394Z,25.40
2022-08-05T02:54:42.675Z,25.40
2022-08-05T02:58:10.466Z,25.40
2022-08-05T03:00:49.915Z,25.30
2022-08-05T03:04:03.216Z,25.40
2022-08-05T03:06:55.444Z,25.30
2022-08-05T03:09:51.640Z,25.30
2022-08-05T03:12:40.360Z,25.50
2022-08-05T03:15:28.803Z,25.60
2022-08-05T03:18:17.379Z,25.60
2022-08-05T03:21:05.681Z,25.60
2022-08-05T03:23:55.325Z,25.50
2022-08-05T03:26:45.678Z,25.40
2022-08-05T03:29:45.809Z,25.30
2022-08-05T03:32:46.904Z,25.30
2022-08-05T03:35:41.147Z,25.20
2022-08-05T03:38:33.393Z,25.00
2022-08-05T03:41:25.048Z,25.10
2022-08-05T03:44:12.510Z,25.30
2022-08-05T03:47:07.329Z,25.30
2022-08-05T03:49:54.813Z,25.50
2022-08-05T03:55:06.866Z,25.40
2022-08-05T03:56:33.137Z,25.40
2022-08-05T03:59:47.065Z,25.10
2022-08-05T04:02:52.328Z,25.10
2022-08-05T04:05:47.201Z,25.10
2022-08-05T04:08:37.054Z,25.30
2022-08-05T04:11:25.624Z,25.40
2022-08-05T04:14:33.539Z,25.50
2022-08-05T04:17:22.315Z,25.60
2022-08-05T04:20:23.365Z,25.80
2022-08-05T04:23:15.929Z,25.90
2022-08-05T04:26:04.507Z,25.90
2022-08-05T04:28:52.243Z,26.00
2022-08-05T04:31:39.960Z,26.60
2022-08-05T04:34:32.550Z,26.90
2022-08-05T04:37:21.572Z,27.30
2022-08-05T04:40:28.895Z,28.10
2022-08-05T04:43:17.340Z,29.20
2022-08-05T04:46:05.804Z,30.20
2022-08-05T04:48:53.895Z,31.40
2022-08-05T04:51:44.049Z,32.20
2022-08-05T04:54:31.612Z,33.20
2022-08-05T04:57:19.194Z,33.40
2022-08-05T05:00:09.063Z,33.90
2022-08-05T05:03:00.215Z,34.30
2022-08-05T05:06:39.292Z,34.80
2022-08-05T05:08:58.819Z,35.40
2022-08-05T05:11:54.533Z,35.60
2022-08-05T05:14:50.889Z,36.00
2022-08-05T05:17:56.694Z,36.20
2022-08-05T05:20:47.042Z,37.20
2022-08-05T05:24:02.310Z,37.10
2022-08-05T05:26:46.497Z,37.90
2022-08-05T05:29:40.845Z,38.30
2022-08-05T05:32:42.849Z,38.30
2022-08-05T05:35:37.896Z,38.20
2022-08-05T05:38:27.777Z,38.20
2022-08-05T05:41:16.426Z,38.00
2022-08-05T05:44:15.759Z,38.40
2022-08-05T05:47:46.435Z,38.40
2022-08-05T05:50:21.634Z,37.60
2022-08-05T05:53:22.405Z,37.70
2022-08-05T05:56:10.333Z,37.90
2022-08-05T05:58:57.850Z,37.30
2022-08-05T06:01:57.252Z,37.30
2022-08-05T06:04:49.353Z,35.80
2022-08-05T06:07:42.053Z,35.40
2022-08-05T06:10:36.594Z,34.30
2022-08-05T06:13:25.062Z,33.70
2022-08-05T06:16:30.851Z,33.10
2022-08-05T06:19:26.193Z,32.60
2022-08-05T06:22:34.866Z,32.40
2022-08-05T06:25:59.095Z,32.00
2022-08-05T06:28:29.824Z,31.80
2022-08-05T06:31:21.751Z,31.70
2022-08-05T06:34:09.894Z,31.90
2022-08-05T06:36:58.771Z,31.90
2022-08-05T06:39:46.404Z,31.90
2022-08-05T06:42:33.921Z,31.80
2022-08-05T06:46:02.983Z,32.00
2022-08-05T06:48:55.716Z,32.10
2022-08-05T06:51:40.827Z,32.10
2022-08-05T06:54:28.406Z,32.30
2022-08-05T06:57:57.143Z,32.20
2022-08-05T07:00:25.770Z,32.00
2022-08-05T07:03:13.185Z,32.30
2022-08-05T07:06:06.010Z,32.40
2022-08-05T07:09:03.967Z,32.50
2022-08-05T07:11:52.274Z,32.50
2022-08-05T07:14:58.626Z,32.60
2022-08-05T07:17:59.255Z,32.50
2022-08-05T07:20:55.667Z,33.00
2022-08-05T07:23:49.771Z,33.20
2022-08-05T07:26:37.885Z,33.50
2022-08-05T07:30:22.803Z,33.40
2022-08-05T07:32:38.597Z,33.70
2022-08-05T07:36:02.054Z,33.70
2022-08-05T07:38:43.383Z,33.80
2022-08-05T07:42:07.744Z,34.30
2022-08-05T07:44:39.354Z,34.60
2022-08-05T07:47:27.170Z,34.90
2022-08-05T07:50:32.491Z,35.10
2022-08-05T07:53:21.105Z,35.30
2022-08-05T07:57:00.322Z,35.60
2022-08-05T07:59:16.073Z,35.80
2022-08-05T08:02:04.144Z,36.10
2022-08-05T08:04:51.520Z,36.00
2022-08-05T08:08:00.101Z,36.20
2022-08-05T08:10:48.825Z,36.20
2022-08-05T08:13:42.793Z,36.60
2022-08-05T08:16:51.015Z,36.60
2022-08-05T08:20:21.241Z,36.40
2022-08-05T08:22:59.452Z,36.60
2022-08-05T08:25:59.691Z,36.30
2022-08-05T08:28:59.446Z,36.10
2022-08-05T08:31:50.921Z,36.30
2022-08-05T08:34:38.459Z,35.90
2022-08-05T08:37:27.858Z,35.90
2022-08-05T08:40:15.685Z,36.00
2022-08-05T08:45:20.785Z,36.30
2022-08-05T08:46:15.613Z,36.60
2022-08-05T08:50:14.689Z,36.50
2022-08-05T08:52:19.860Z,37.10
2022-08-05T08:55:13.254Z,37.20
2022-08-05T08:58:02.554Z,36.70
2022-08-05T09:00:51.663Z,37.10
2022-08-05T09:03:44.913Z,37.00
2022-08-05T09:06:36.146Z,36.70
2022-08-05T09:09:24.229Z,37.00
2022-08-05T09:12:20.665Z,37.20
2022-08-05T09:15:15.269Z,36.40
2022-08-05T09:18:02.782Z,36.80
2022-08-05T09:20:51.368Z,37.10
2022-08-05T09:23:43.631Z,37.90
2022-08-05T09:26:32.403Z,38.10
2022-08-05T09:29:20.374Z,37.80
2022-08-05T09:32:41.581Z,38.10
2022-08-05T09:35:26.332Z,38.30
2022-08-05T09:38:18.101Z,37.80
2022-08-05T09:41:12.501Z,38.20
2022-08-05T09:44:04.093Z,38.50
2022-08-05T09:47:47.972Z,38.90
2022-08-05T09:50:44.053Z,39.10
2022-08-05T09:53:59.257Z,39.30
2022-08-05T09:56:52.250Z,39.60
2022-08-05T09:59:40.050Z,39.60
2022-08-05T10:02:46.489Z,40.00
2022-08-05T10:05:36.202Z,40.50
2022-08-05T10:08:36.587Z,40.50
2022-08-05T10:11:31.363Z,39.40
2022-08-05T10:14:28.237Z,39.10
2022-08-05T10:17:39.295Z,39.40
2022-08-05T10:20:26.444Z,39.70
2022-08-05T10:23:34.353Z,39.60
2022-08-05T10:26:32.720Z,39.80
2022-08-05T10:29:24.007Z,39.70
2022-08-05T10:32:52.722Z,39.90
2022-08-05T10:35:44.334Z,40.20
2022-08-05T10:38:36.223Z,40.60
2022-08-05T10:41:46.688Z,40.40
2022-08-05T10:44:36.647Z,40.40
2022-08-05T10:47:34.406Z,40.90
2022-08-05T10:50:36.664Z,40.30
2022-08-05T10:53:58.429Z,40.40
2022-08-05T10:56:58.536Z,40.50
2022-08-05T11:00:02.726Z,40.90
2022-08-05T11:03:24.501Z,41.40
2022-08-05T11:06:15.733Z,40.60
2022-08-05T11:09:32.039Z,40.80
2022-08-05T11:12:45.324Z,40.70
2022-08-05T11:16:01.080Z,40.70
2022-08-05T11:20:17.442Z,41.30
2022-08-05T11:22:50.014Z,40.90
2022-08-05T11:26:04.903Z,40.70
2022-08-05T11:28:54.597Z,40.50
2022-08-05T11:31:57.639Z,40.50
2022-08-05T11:34:54.207Z,40.70
2022-08-05T11:38:28.067Z,41.20
2022-08-05T11:41:34.137Z,41.60
2022-08-05T11:44:40.212Z,41.20
2022-08-05T11:47:49.803Z,41.60
2022-08-05T11:50:39.401Z,41.20
2022-08-05T11:53:28.145Z,41.20
2022-08-05T11:56:41.158Z,41.80
2022-08-05T11:59:31.061Z,41.50
2022-08-05T12:02:40.151Z,41.40
2022-08-05T12:05:36.093Z,41.10
2022-08-05T12:08:27.271Z,41.00
2022-08-05T12:11:40.410Z,41.00
2022-08-05T12:14:43.701Z,41.30
2022-08-05T12:18:03.808Z,41.50
2022-08-05T12:20:44.860Z,41.40
2022-08-05T12:23:33.159Z,41.90
2022-08-05T12:26:21.364Z,41.10
2022-08-05T12:29:16.108Z,41.20
2022-08-05T12:32:07.515Z,41.60
2022-08-05T12:34:57.528Z,41.70
2022-08-05T12:37:47.905Z,42.40
2022-08-05T12:40:36.609Z,42.10
2022-08-05T12:43:27.160Z,41.70
2022-08-05T12:46:31.701Z,42.30
2022-08-05T12:49:19.292Z,42.70
2022-08-05T12:52:25.540Z,42.50
2022-08-05T12:55:22.061Z,42.10
2022-08-05T12:58:49.098Z,41.30
2022-08-05T13:02:00.180Z,41.30
2022-08-05T13:04:52.479Z,42.10
2022-08-05T13:08:01.384Z,42.30
2022-08-05T13:10:50.728Z,42.40
2022-08-05T13:14:05.169Z,42.80
2022-08-05T13:16:56.601Z,42.10
2022-08-05T13:20:10.605Z,42.30
2022-08-05T13:22:58.986Z,42.50
2022-08-05T13:25:52.016Z,41.50
2022-08-05T13:28:46.625Z,40.70
2022-08-05T13:32:03.675Z,41.40
2022-08-05T13:34:41.745Z,42.40
2022-08-05T13:37:34.615Z,42.30
2022-08-05T13:40:36.525Z,42.70
2022-08-05T13:43:44.164Z,42.80
2022-08-05T13:46:51.026Z,42.50
2022-08-05T13:49:45.048Z,42.80
2022-08-05T13:52:35.497Z,42.80
2022-08-05T13:55:41.915Z,43.30
2022-08-05T13:58:31.600Z,43.20
2022-08-05T14:01:19.155Z,43.10
2022-08-05T14:04:26.645Z,42.70
2022-08-05T14:07:25.376Z,42.40
2022-08-05T14:10:28.467Z,43.20
2022-08-05T14:13:18.445Z,42.90
2022-08-05T14:16:11.267Z,43.30
2022-08-05T14:19:04.418Z,42.80
2022-08-05T14:22:09.403Z,42.40
2022-08-05T14:24:59.390Z,42.00
2022-08-05T14:27:48.532Z,42.20
2022-08-05T14:30:36.066Z,43.10
2022-08-05T14:33:24.303Z,43.50
2022-08-05T14:36:12.045Z,42.70
2022-08-05T14:38:59.699Z,42.70
2022-08-05T14:42:15.921Z,43.00
2022-08-05T14:44:58.345Z,43.10
2022-08-05T14:48:05.572Z,43.30
2022-08-05T14:50:53.799Z,43.40
2022-08-05T14:53:44.593Z,43.60
2022-08-05T14:56:32.310Z,43.20
2022-08-05T14:59:21.896Z,42.80
2022-08-05T15:02:15.769Z,43.10
2022-08-05T15:05:08.562Z,43.40
2022-08-05T15:08:08.980Z,42.90
2022-08-05T15:11:00.785Z,42.90
2022-08-05T15:13:50.287Z,42.90
2022-08-05T15:16:38.620Z,43.10
2022-08-05T15:19:27.939Z,42.60
2022-08-05T15:22:18.210Z,42.90
2022-08-05T15:25:11.986Z,43.00
2022-08-05T15:28:02.547Z,42.90
2022-08-05T15:30:51.575Z,42.30
2022-08-05T15:34:18.730Z,42.00
2022-08-05T15:36:49.310Z,41.30
2022-08-05T15:40:59.389Z,41.50
2022-08-05T15:42:55.149Z,40.70
2022-08-05T15:45:46.291Z,40.60
2022-08-05T15:48:33.771Z,40.60
2022-08-05T15:52:03.746Z,40.50
2022-08-05T15:54:37.539Z,40.50
2022-08-05T15:57:25.403Z,40.60
2022-08-05T16:00:32.703Z,40.50
2022-08-05T16:03:28.450Z,40.50
2022-08-05T16:06:20.418Z,40.40
2022-08-05T16:09:08.265Z,40.10
2022-08-05T16:11:57.525Z,40.50
2022-08-05T16:14:45.057Z,40.20
2022-08-05T16:17:34.125Z,40.00
2022-08-05T16:20:21.776Z,40.00
2022-08-05T16:23:10.209Z,40.10
2022-08-05T16:26:09.856Z,39.90
2022-08-05T16:28:57.614Z,39.80
2022-08-05T16:31:57.153Z,39.90
2022-08-05T16:34:45.245Z,39.80
2022-08-05T16:38:03.378Z,39.90
2022-08-05T16:40:55.133Z,39.80
2022-08-05T16:43:47.121Z,39.80
2022-08-05T16:46:35.513Z,39.50
2022-08-05T16:49:23.816Z,39.60
2022-08-05T16:52:11.760Z,39.30
2022-08-05T16:55:00.652Z,39.10
2022-08-05T16:57:59.795Z,39.20
2022-08-05T17:00:49.627Z,39.10
2022-08-05T17:03:37.452Z,39.00
2022-08-05T17:06:26.482Z,38.90
2022-08-05T17:09:14.028Z,38.60
2022-08-05T17:12:02.045Z,38.60
2022-08-05T17:14:50.510Z,38.70
2022-08-05T17:17:42.680Z,38.30
2022-08-05T17:20:30.740Z,38.00
2022-08-05T17:24:05.035Z,37.90
2022-08-05T17:26:25.726Z,38.00
2022-08-05T17:29:13.218Z,37.50
2022-08-05T17:32:00.983Z,37.70
2022-08-05T17:34:49.660Z,37.20
2022-08-05T17:37:41.715Z,37.50
2022-08-05T17:40:32.885Z,37.50
2022-08-05T17:43:46.788Z,37.00
2022-08-05T17:46:28.124Z,37.10
2022-08-05T17:49:15.756Z,36.90
2022-08-05T17:52:03.390Z,36.90
2022-08-05T17:54:50.906Z,36.50
2022-08-05T17:57:43.493Z,36.50
2022-08-05T18:00:40.881Z,36.50
2022-08-05T18:03:59.781Z,36.60
2022-08-05T18:06:41.133Z,36.80
2022-08-05T18:10:00.447Z,36.60
2022-08-05T18:12:41.952Z,36.40
2022-08-05T18:15:34.097Z,36.40
2022-08-05T18:18:21.869Z,36.10
2022-08-05T18:21:20.067Z,36.10
2022-08-05T18:24:12.529Z,36.10
2022-08-05T18:27:01.898Z,36.10
2022-08-05T18:29:54.411Z,36.10
2022-08-05T18:32:42.342Z,35.80
2022-08-05T18:35:59.829Z,35.80
2022-08-05T18:38:50.332Z,35.50
2022-08-05T18:41:58.004Z,35.60
2022-08-05T18:44:49.219Z,35.50
2022-08-05T18:47:42.998Z,35.60
2022-08-05T18:50:49.609Z,35.60
2022-08-05T18:53:42.933Z,35.50
2022-08-05T18:56:34.730Z,35.40
2022-08-05T18:59:43.961Z,35.40
2022-08-05T19:02:29.885Z,35.30
2022-08-05T19:06:11.363Z,35.20
2022-08-05T19:08:30.863Z,35.20
2022-08-05T19:11:28.028Z,35.20
2022-08-05T19:14:37.995Z,34.90
2022-08-05T19:17:23.905Z,34.70
2022-08-05T19:20:21.564Z,34.60
2022-08-05T19:23:22.627Z,34.70
2022-08-05T19:26:19.201Z,34.60
2022-08-05T19:29:07.003Z,34.70
2022-08-05T19:31:57.337Z,34.70
2022-08-05T19:34:54.722Z,34.60
2022-08-05T19:38:04.175Z,34.80
2022-08-05T19:40:50.535Z,34.70
2022-08-05T19:44:06.401Z,34.80
2022-08-05T19:46:51.286Z,34.60
2022-08-05T19:49:38.786Z,34.70
2022-08-05T19:52:31.678Z,34.80
2022-08-05T19:56:14.043Z,34.90
2022-08-05T19:58:28.871Z,35.10
2022-08-05T20:01:21.729Z,34.80
2022-08-05T20:04:16.156Z,34.90
2022-08-05T20:07:10.247Z,34.90
2022-08-05T20:10:00.898Z,35.10
2022-08-05T20:12:49.188Z,35.10
2022-08-05T20:15:52.073Z,35.00
2022-08-05T20:18:43.590Z,34.90
2022-08-05T20:21:32.515Z,35.10
2022-08-05T20:24:20.766Z,34.90
2022-08-05T20:27:11.094Z,34.90
2022-08-05T20:29:59.356Z,34.90
2022-08-05T20:32:47.559Z,35.00
2022-08-05T20:35:40.556Z,35.00
2022-08-05T20:38:35.508Z,35.00
2022-08-05T20:41:23.953Z,34.90
2022-08-05T20:44:18.488Z,35.00
2022-08-05T20:47:17.226Z,35.00
2022-08-05T20:50:07.731Z,34.90
2022-08-05T20:52:55.221Z,34.90
2022-08-05T20:55:55.148Z,34.70
2022-08-05T20:58:44.511Z,34.20
2022-08-05T21:01:37.374Z,34.10
2022-08-05T21:04:27.092Z,33.80
2022-08-05T21:07:14.870Z,33.90
2022-08-05T21:10:02.442Z,33.70
2022-08-05T21:12:57.843Z,33.60
2022-08-05T21:15:51.115Z,33.90
2022-08-05T21:18:38.900Z,33.60
2022-08-05T21:21:44.545Z,33.50
2022-08-05T21:24:38.871Z,33.60
2022-08-05T21:27:27.371Z,33.50
2022-08-05T21:30:17.644Z,33.30
2022-08-05T21:33:08.353Z,33.40
2022-08-05T21:35:59.305Z,33.50
2022-08-05T21:38:46.839Z,33.30
2022-08-05T21:41:35.691Z,33.00
2022-08-05T21:44:26.756Z,32.90
2022-08-05T21:47:32.759Z,32.60
2022-08-05T21:50:22.790Z,32.70
2022-08-05T21:53:17.553Z,32.40
2022-08-05T21:56:16.641Z,32.60
2022-08-05T21:59:07.951Z,32.60
2022-08-05T22:02:09.981Z,32.40
2022-08-05T22:04:58.688Z,32.40
2022-08-05T22:07:58.504Z,32.40
2022-08-05T22:10:50.261Z,32.40
2022-08-05T22:14:33.135Z,32.70
2022-08-05T22:16:51.086Z,32.70
2022-08-05T22:20:00.502Z,33.00
2022-08-05T22:23:16.927Z,33.00
2022-08-05T22:26:23.630Z,32.90
2022-08-05T22:29:11.871Z,32.80
2022-08-05T22:32:03.180Z,32.50
2022-08-05T22:34:50.997Z,32.30
2022-08-05T22:37:59.328Z,32.10
2022-08-05T22:40:49.462Z,32.20
2022-08-05T22:43:40.675Z,32.10
2022-08-05T22:46:28.135Z,32.20
2022-08-05T22:49:46.255Z,32.30
2022-08-05T22:52:32.142Z,32.00
2022-08-05T22:55:23.955Z,31.90
2022-08-05T22:58:14.539Z,31.80
2022-08-05T23:01:02.187Z,32.10
2022-08-05T23:03:58.234Z,32.30
2022-08-05T23:06:47.747Z,32.70
2022-08-05T23:09:58.004Z,32.40
2022-08-05T23:12:43.804Z,32.40
2022-08-05T23:15:35.206Z,32.00
2022-08-05T23:18:23.795Z,32.00
2022-08-05T23:21:11.372Z,32.00
2022-08-05T23:24:11.069Z,32.20
2022-08-05T23:26:59.165Z,32.20
2022-08-05T23:29:49.281Z,32.30
2022-08-05T23:32:40.738Z,31.90
2022-08-05T23:35:34.471Z,31.80
2022-08-05T23:38:22.136Z,32.00
2022-08-05T23:41:10.857Z,31.60
2022-08-05T23:44:05.833Z,32.10
2022-08-05T23:46:54.181Z,31.70
2022-08-05T23:49:45.868Z,31.70
2022-08-05T23:52:36.205Z,31.60
2022-08-05T23:55:37.635Z,31.30
2022-08-05T23:58:32.006Z,31.70
